createdAt,value
2022-10-11T00:03:18.964Z,99.90
2022-10-11T00:07:41.583Z,99.90
2022-10-11T00:12:04.335Z,99.90
2022-10-11T00:16:26.564Z,99.90
2022-10-11T00:20:49.244Z,99.90
2022-10-11T00:25:13.103Z,99.90
2022-10-11T00:29:37.949Z,99.90
2022-10-11T00:34:00.363Z,99.90
2022-10-11T00:38:22.843Z,99.90
2022-10-11T00:42:46.604Z,99.90
2022-10-11T00:47:17.924Z,99.90
2022-10-11T00:52:03.505Z,99.90
2022-10-11T00:56:31.866Z,99.90
2022-10-11T01:00:54.694Z,99.90
2022-10-11T01:05:29.524Z,99.90
2022-10-11T01:09:52.663Z,99.90
2022-10-11T01:14:44.004Z,99.90
2022-10-11T01:19:56.042Z,99.90
2022-10-11T01:25:21.382Z,99.90
2022-10-11T01:30:22.564Z,99.90
2022-10-11T01:35:08.024Z,99.90
2022-10-11T01:39:34.643Z,99.90
2022-10-11T01:44:01.504Z,99.90
2022-10-11T01:48:24.184Z,99.90
2022-10-11T01:52:46.624Z,99.90
2022-10-11T01:57:59.143Z,99.90
2022-10-11T02:02:48.422Z,99.90
2022-10-11T02:07:23.949Z,99.90
2022-10-11T02:11:46.466Z,99.90
2022-10-11T02:16:14.443Z,99.90
2022-10-11T02:20:40.666Z,99.90
2022-10-11T02:25:07.964Z,99.90
2022-10-11T02:29:34.703Z,99.90
2022-10-11T02:34:11.744Z,99.90
2022-10-11T02:38:45.364Z,99.90
2022-10-11T02:43:31.056Z,99.90
2022-10-11T02:47:54.304Z,99.90
2022-10-11T02:52:16.823Z,99.90
2022-10-11T02:56:39.223Z,99.90
2022-10-11T03:01:01.867Z,99.90
2022-10-11T03:05:24.143Z,99.90
2022-10-11T03:09:46.864Z,99.90
2022-10-11T03:14:09.478Z,99.90
2022-10-11T03:18:32.249Z,99.90
2022-10-11T03:22:54.725Z,99.90
2022-10-11T03:27:17.404Z,99.90
2022-10-11T03:31:39.689Z,99.90
2022-10-11T03:36:02.442Z,99.90
2022-10-11T03:40:24.904Z,99.90
2022-10-11T03:44:49.784Z,99.90
2022-10-11T03:49:11.964Z,99.90
2022-10-11T03:53:34.043Z,99.90
2022-10-11T03:57:56.437Z,99.90
2022-10-11T04:02:19.124Z,99.90
2022-10-11T04:06:41.644Z,99.90
2022-10-11T04:11:03.963Z,99.90
2022-10-11T04:15:26.483Z,99.90
2022-10-11T04:19:49.024Z,99.90
2022-10-11T04:24:14.139Z,99.90
2022-10-11T04:28:36.807Z,99.90
2022-10-11T04:32:58.965Z,99.90
2022-10-11T04:37:21.304Z,99.90
2022-10-11T04:41:43.646Z,99.90
2022-10-11T04:46:07.360Z,99.90
2022-10-11T04:50:30.485Z,99.90
2022-10-11T04:54:53.242Z,99.90
2022-10-11T04:59:15.544Z,99.90
2022-10-11T05:03:38.532Z,99.90
2022-10-11T05:08:01.086Z,99.90
2022-10-11T05:12:23.604Z,99.90
2022-10-11T05:16:45.884Z,99.90
2022-10-11T05:21:26.243Z,99.90
2022-10-11T05:25:48.415Z,99.90
2022-10-11T05:30:11.304Z,99.90
2022-10-11T05:34:33.723Z,99.90
2022-10-11T05:38:56.243Z,99.90
2022-10-11T05:43:19.342Z,99.90
2022-10-11T05:47:41.704Z,99.90
2022-10-11T05:52:09.523Z,99.90
2022-10-11T05:56:31.664Z,99.90
2022-10-11T06:00:54.990Z,99.90
2022-10-11T06:05:17.783Z,99.90
2022-10-11T06:09:40.316Z,99.90
2022-10-11T06:14:02.785Z,99.90
2022-10-11T06:18:25.023Z,99.90
2022-10-11T06:22:47.603Z,99.90
2022-10-11T06:27:10.343Z,99.90
2022-10-11T06:31:33.264Z,99.90
2022-10-11T06:36:07.903Z,99.90
2022-10-11T06:40:30.646Z,99.90
2022-10-11T06:44:53.424Z,99.90
2022-10-11T06:49:20.687Z,99.90
2022-10-11T06:53:57.065Z,99.90
2022-10-11T06:58:19.761Z,99.90
2022-10-11T07:02:42.363Z,99.90
2022-10-11T07:07:04.604Z,99.90
2022-10-11T07:11:29.237Z,98.10
2022-10-11T07:15:51.513Z,90.60
2022-10-11T07:20:14.083Z,85.20
2022-10-11T07:24:36.418Z,78.10
2022-10-11T07:28:58.943Z,71.00
2022-10-11T07:33:21.436Z,67.60
2022-10-11T07:37:44.044Z,64.40
2022-10-11T07:42:07.204Z,70.10
2022-10-11T07:46:29.763Z,66.30
2022-10-11T07:50:51.797Z,61.70
2022-10-11T07:55:14.343Z,58.20
2022-10-11T07:59:36.844Z,58.20
2022-10-11T08:04:00.221Z,56.40
2022-10-11T08:08:22.704Z,54.60
2022-10-11T08:12:48.544Z,52.20
2022-10-11T08:17:10.804Z,53.40
2022-10-11T08:21:33.502Z,54.50
2022-10-11T08:25:58.743Z,53.00
2022-10-11T08:30:21.170Z,50.50
2022-10-11T08:34:43.634Z,49.80
2022-10-11T08:39:07.484Z,48.00
2022-10-11T08:44:08.543Z,51.60
2022-10-11T08:48:48.388Z,51.70
2022-10-11T08:53:57.102Z,53.00
2022-10-11T08:58:24.843Z,52.30
2022-10-11T09:03:15.318Z,49.40
2022-10-11T09:08:19.589Z,50.00
2022-10-11T09:13:31.559Z,48.60
2022-10-11T09:18:19.758Z,46.00
2022-10-11T09:23:16.283Z,49.00
2022-10-11T09:28:03.599Z,49.00
2022-10-11T09:32:36.975Z,47.10
2022-10-11T09:37:07.643Z,45.30
2022-10-11T09:41:49.805Z,44.30
2022-10-11T09:46:38.263Z,50.20
2022-10-11T09:51:08.360Z,55.80
2022-10-11T09:56:02.281Z,51.70
2022-10-11T10:00:28.945Z,49.00
2022-10-11T10:05:14.674Z,45.80
2022-10-11T10:09:37.351Z,47.50
2022-10-11T10:14:00.027Z,52.10
2022-10-11T10:18:37.604Z,51.20
2022-10-11T10:23:39.142Z,47.50
2022-10-11T10:28:16.521Z,47.60
2022-10-11T10:32:55.311Z,50.30
2022-10-11T10:37:33.967Z,55.80
2022-10-11T10:41:57.073Z,58.90
2022-10-11T10:46:28.342Z,57.00
2022-10-11T10:50:59.103Z,51.60
2022-10-11T10:55:29.822Z,50.10
2022-10-11T11:00:15.976Z,53.30
2022-10-11T11:04:38.975Z,55.50
2022-10-11T11:09:14.515Z,57.90
2022-10-11T11:13:50.223Z,60.50
2022-10-11T11:18:27.383Z,60.80
2022-10-11T11:23:07.282Z,56.70
2022-10-11T11:28:11.974Z,54.90
2022-10-11T11:32:48.303Z,56.40
2022-10-11T11:37:10.404Z,60.00
2022-10-11T11:42:04.279Z,57.40
2022-10-11T11:46:44.144Z,54.40
2022-10-11T11:51:18.983Z,54.00
2022-10-11T11:55:54.964Z,52.80
2022-10-11T12:00:24.084Z,52.30
2022-10-11T12:04:48.806Z,52.50
2022-10-11T12:09:17.674Z,52.90
2022-10-11T12:13:42.704Z,54.50
2022-10-11T12:18:17.170Z,55.60
2022-10-11T12:23:03.667Z,58.00
2022-10-11T12:27:47.335Z,59.60
2022-10-11T12:32:11.523Z,62.90
2022-10-11T12:36:48.803Z,65.00
2022-10-11T12:41:11.183Z,67.00
2022-10-11T12:45:34.749Z,69.10
2022-10-11T12:50:46.166Z,69.40
2022-10-11T12:55:26.935Z,69.80
2022-10-11T12:59:50.564Z,69.80
2022-10-11T13:04:13.865Z,69.40
2022-10-11T13:08:41.018Z,69.60
2022-10-11T13:13:09.378Z,70.10
2022-10-11T13:17:38.404Z,70.50
2022-10-11T13:22:07.379Z,72.20
2022-10-11T13:26:32.078Z,72.20
2022-10-11T13:30:57.003Z,73.10
2022-10-11T13:35:37.784Z,73.90
2022-10-11T13:40:00.143Z,72.50
2022-10-11T13:44:22.844Z,72.40
2022-10-11T13:48:45.903Z,72.70
2022-10-11T13:53:11.655Z,73.40
2022-10-11T13:57:45.137Z,75.10
2022-10-11T14:02:22.903Z,76.40
2022-10-11T14:07:01.392Z,76.30
2022-10-11T14:11:37.884Z,76.50
2022-10-11T14:16:09.628Z,76.10
2022-10-11T14:20:42.266Z,78.00
2022-10-11T14:25:05.484Z,78.90
2022-10-11T14:29:35.003Z,81.60
2022-10-11T14:33:58.143Z,82.30
2022-10-11T14:38:20.504Z,83.20
2022-10-11T14:42:43.303Z,84.30
2022-10-11T14:47:07.023Z,84.90
2022-10-11T14:51:35.096Z,86.70
2022-10-11T14:55:57.856Z,88.10
2022-10-11T15:00:26.031Z,88.40
2022-10-11T15:04:48.125Z,89.40
2022-10-11T15:09:10.905Z,90.00
2022-10-11T15:13:33.223Z,90.20
2022-10-11T15:17:58.804Z,90.20
2022-10-11T15:22:23.743Z,90.60
2022-10-11T15:26:48.146Z,90.70
2022-10-11T15:31:14.717Z,90.80
2022-10-11T15:35:37.223Z,91.40
2022-10-11T15:39:59.982Z,92.70
2022-10-11T15:44:25.563Z,94.00
2022-10-11T15:48:49.064Z,95.80
2022-10-11T15:53:16.444Z,97.70
2022-10-11T15:57:38.597Z,99.00
2022-10-11T16:02:00.961Z,99.90
2022-10-11T16:06:24.204Z,99.90
2022-10-11T16:10:46.740Z,99.90
2022-10-11T16:15:09.723Z,99.90
2022-10-11T16:19:34.818Z,99.90
2022-10-11T16:23:57.226Z,99.90
2022-10-11T16:28:19.669Z,99.90
2022-10-11T16:32:42.923Z,99.90
2022-10-11T16:37:05.425Z,99.90
2022-10-11T16:41:28.163Z,99.90
2022-10-11T16:45:57.915Z,99.90
2022-10-11T16:50:20.233Z,99.90
2022-10-11T17:23:11.443Z,99.90
2022-10-11T17:27:34.077Z,99.90
2022-10-11T17:31:56.837Z,99.90
2022-10-11T17:36:30.806Z,99.90
2022-10-11T17:41:05.938Z,99.90
2022-10-11T17:45:28.482Z,99.90
2022-10-11T17:49:50.964Z,99.90
2022-10-11T17:54:13.367Z,99.90
2022-10-11T17:58:35.997Z,99.90
2022-10-11T18:02:58.523Z,99.90
2022-10-11T18:07:21.055Z,99.90
2022-10-11T18:11:43.816Z,99.90
2022-10-11T18:16:06.480Z,99.90
2022-10-11T18:20:28.973Z,99.90
2022-10-11T18:24:51.425Z,99.90
2022-10-11T18:29:14.303Z,99.90
2022-10-11T18:33:38.292Z,99.90
2022-10-11T18:38:04.283Z,99.90
2022-10-11T18:42:26.782Z,99.90
2022-10-11T18:46:50.655Z,99.90
2022-10-11T18:51:18.762Z,99.90
2022-10-11T18:55:41.185Z,99.90
2022-10-11T19:00:11.991Z,99.90
2022-10-11T19:04:46.105Z,99.90
2022-10-11T19:09:18.147Z,99.90
2022-10-11T19:13:40.884Z,99.90
2022-10-11T19:18:03.403Z,99.90
2022-10-11T19:22:25.864Z,99.90
2022-10-11T19:26:49.762Z,99.90
2022-10-11T19:31:17.363Z,99.90
2022-10-11T19:35:42.484Z,99.90
2022-10-11T19:40:05.962Z,99.90
2022-10-11T19:44:28.464Z,99.90
2022-10-11T19:48:51.583Z,99.90
2022-10-11T19:53:14.006Z,99.90
2022-10-11T19:57:36.455Z,99.90
2022-10-11T20:01:58.675Z,99.90
2022-10-11T20:06:25.335Z,99.90
2022-10-11T20:10:48.110Z,99.90
2022-10-11T20:15:11.271Z,99.90
2022-10-11T20:19:36.688Z,99.90
2022-10-11T20:24:03.203Z,99.90
2022-10-11T20:28:27.567Z,99.90
2022-10-11T20:32:50.367Z,99.90
2022-10-11T20:37:12.664Z,99.90
2022-10-11T20:41:40.087Z,99.90
2022-10-11T20:46:09.740Z,99.90
2022-10-11T20:50:32.095Z,99.90
2022-10-11T20:54:54.483Z,99.90
2022-10-11T20:59:16.923Z,99.90
2022-10-11T21:03:39.943Z,99.90
2022-10-11T21:08:02.720Z,99.90
2022-10-11T21:12:24.883Z,99.90
2022-10-11T21:16:48.223Z,99.90
2022-10-11T21:21:15.102Z,99.90
2022-10-11T21:25:38.135Z,99.90
2022-10-11T21:30:00.482Z,99.90
2022-10-11T21:34:23.042Z,99.90
2022-10-11T21:38:46.045Z,99.90
2022-10-11T21:43:08.503Z,99.90
2022-10-11T21:47:31.479Z,99.90
2022-10-11T21:51:54.103Z,99.90
2022-10-11T21:56:16.642Z,99.90
2022-10-11T22:00:39.203Z,99.90
2022-10-11T22:05:01.631Z,99.90
2022-10-11T22:09:28.802Z,99.90
2022-10-11T22:13:51.143Z,99.90
2022-10-11T22:18:13.263Z,99.90
2022-10-11T22:22:35.881Z,99.90
2022-10-11T22:26:58.623Z,99.90
2022-10-11T22:31:22.642Z,99.90
2022-10-11T22:35:44.882Z,99.90
2022-10-11T22:40:08.004Z,99.90
2022-10-11T22:44:30.542Z,99.90
2022-10-11T22:48:52.982Z,99.90
2022-10-11T22:53:16.024Z,99.90
2022-10-11T22:57:38.832Z,99.90
2022-10-11T23:02:01.322Z,99.90
2022-10-11T23:06:23.546Z,99.90
2022-10-11T23:10:46.249Z,99.90
2022-10-11T23:15:09.282Z,99.90
2022-10-11T23:19:31.703Z,99.90
2022-10-11T23:23:55.003Z,99.90
2022-10-11T23:28:17.390Z,99.90
2022-10-11T23:32:40.003Z,99.90
2022-10-11T23:37:03.703Z,99.90
2022-10-11T23:41:29.104Z,99.90
2022-10-11T23:45:51.782Z,99.90
2022-10-11T23:50:13.983Z,99.90
2022-10-11T23:54:36.260Z,99.90
2022-10-11T23:58:59.164Z,99.90
